sensor_id;sensor_type;location;lat;lon;timestamp;pressure;altitude;pressure_sealevel;temperature;humidity
44198;BME280;30157;55.512;37.764;2024-03-23T00:53:48;99120.47;;;0.72;87.23
44198;BME280;30157;55.512;37.764;2024-03-23T00:56:14;99104.34;;;0.75;87.24
44198;BME280;30157;55.512;37.764;2024-03-23T00:58:40;99102.53;;;0.69;87.21
44198;BME280;30157;55.512;37.764;2024-03-23T01:01:06;99038.06;;;0.43;86.59
44198;BME280;30157;55.512;37.764;2024-03-23T01:03:32;99032.84;;;0.38;86.88
44198;BME280;30157;55.512;37.764;2024-03-23T01:06:01;99036.34;;;0.42;86.76
44198;BME280;30157;55.512;37.764;2024-03-23T01:08:27;99091.66;;;0.79;86.88
44198;BME280;30157;55.512;37.764;2024-03-23T01:10:56;99015.84;;;0.39;86.91
44198;BME280;30157;55.512;37.764;2024-03-23T01:13:22;99001.97;;;0.27;87.60
44198;BME280;30157;55.512;37.764;2024-03-23T01:15:52;99078.06;;;0.80;87.09
44198;BME280;30157;55.512;37.764;2024-03-23T01:18:18;99076.44;;;0.82;87.70
44198;BME280;30157;55.512;37.764;2024-03-23T01:20:45;99075.47;;;0.77;88.48
44198;BME280;30157;55.512;37.764;2024-03-23T01:23:11;99056.50;;;0.68;88.73
44198;BME280;30157;55.512;37.764;2024-03-23T01:25:37;99040.50;;;0.75;88.11
44198;BME280;30157;55.512;37.764;2024-03-23T01:28:03;99057.72;;;0.83;88.49
44198;BME280;30157;55.512;37.764;2024-03-23T01:30:29;99040.41;;;0.70;88.26
44198;BME280;30157;55.512;37.764;2024-03-23T01:32:56;99047.41;;;0.80;88.77
44198;BME280;30157;55.512;37.764;2024-03-23T01:35:21;99036.16;;;0.72;88.42
44198;BME280;30157;55.512;37.764;2024-03-23T01:37:47;99045.84;;;0.86;89.07
44198;BME280;30157;55.512;37.764;2024-03-23T01:40:13;99024.44;;;0.80;89.01
44198;BME280;30157;55.512;37.764;2024-03-23T01:42:39;99033.97;;;0.88;89.22
44198;BME280;30157;55.512;37.764;2024-03-23T01:45:09;98995.19;;;0.66;88.79
44198;BME280;30157;55.512;37.764;2024-03-23T01:47:35;99021.97;;;0.83;88.81
44198;BME280;30157;55.512;37.764;2024-03-23T01:50:01;98947.13;;;0.49;88.58
44198;BME280;30157;55.512;37.764;2024-03-23T01:52:29;98993.50;;;0.68;89.32
44198;BME280;30157;55.512;37.764;2024-03-23T01:54:56;99001.19;;;0.70;90.08
44198;BME280;30157;55.512;37.764;2024-03-23T01:57:22;98986.69;;;0.69;90.29
44198;BME280;30157;55.512;37.764;2024-03-23T01:59:48;99012.59;;;0.84;90.95
44198;BME280;30157;55.512;37.764;2024-03-23T02:02:22;99007.38;;;0.79;90.71
44198;BME280;30157;55.512;37.764;2024-03-23T02:04:48;98990.31;;;0.77;90.81
44198;BME280;30157;55.512;37.764;2024-03-23T02:07:14;98932.69;;;0.50;91.22
44198;BME280;30157;55.512;37.764;2024-03-23T02:09:39;99002.47;;;0.90;91.24
44198;BME280;30157;55.512;37.764;2024-03-23T02:12:05;98995.59;;;0.86;91.36
44198;BME280;30157;55.512;37.764;2024-03-23T02:14:31;99009.28;;;0.90;91.49
44198;BME280;30157;55.512;37.764;2024-03-23T02:16:58;98999.13;;;0.93;91.56
44198;BME280;30157;55.512;37.764;2024-03-23T02:19:24;98971.75;;;0.86;91.53
44198;BME280;30157;55.512;37.764;2024-03-23T02:21:49;98968.19;;;0.79;91.93
44198;BME280;30157;55.512;37.764;2024-03-23T02:24:15;98920.94;;;0.57;92.21
44198;BME280;30157;55.512;37.764;2024-03-23T02:26:41;98981.22;;;0.91;93.31
44198;BME280;30157;55.512;37.764;2024-03-23T02:29:06;98895.28;;;0.52;91.87
44198;BME280;30157;55.512;37.764;2024-03-23T02:31:35;98951.28;;;0.84;92.69
44198;BME280;30157;55.512;37.764;2024-03-23T02:34:01;98962.31;;;0.83;93.51
44198;BME280;30157;55.512;37.764;2024-03-23T02:36:27;98825.66;;;0.18;93.25
44198;BME280;30157;55.512;37.764;2024-03-23T02:38:53;98944.56;;;0.89;93.74
44198;BME280;30157;55.512;37.764;2024-03-23T02:41:19;98965.91;;;0.93;94.10
44198;BME280;30157;55.512;37.764;2024-03-23T02:43:51;98951.50;;;0.96;93.55
44198;BME280;30157;55.512;37.764;2024-03-23T02:46:17;98946.38;;;0.95;93.76
44198;BME280;30157;55.512;37.764;2024-03-23T02:48:43;98921.59;;;0.91;93.63
44198;BME280;30157;55.512;37.764;2024-03-23T02:51:09;98931.00;;;0.92;93.89
44198;BME280;30157;55.512;37.764;2024-03-23T02:53:34;98940.41;;;0.94;94.19
44198;BME280;30157;55.512;37.764;2024-03-23T02:56:00;98928.50;;;0.96;94.13
44198;BME280;30157;55.512;37.764;2024-03-23T02:58:26;98907.03;;;0.87;93.28
44198;BME280;30157;55.512;37.764;2024-03-23T03:00:52;98924.53;;;1.09;93.41
44198;BME280;30157;55.512;37.764;2024-03-23T03:03:17;98838.31;;;0.56;93.84
44198;BME280;30157;55.512;37.764;2024-03-23T03:05:43;98920.97;;;1.03;93.94
44198;BME280;30157;55.512;37.764;2024-03-23T03:08:09;98880.50;;;0.80;94.48
44198;BME280;30157;55.512;37.764;2024-03-23T03:10:35;98895.28;;;0.95;94.67
44198;BME280;30157;55.512;37.764;2024-03-23T03:13:02;98903.97;;;1.05;94.45
44198;BME280;30157;55.512;37.764;2024-03-23T03:15:28;98871.13;;;0.79;94.92
44198;BME280;30157;55.512;37.764;2024-03-23T03:17:54;98892.91;;;1.06;94.77
44198;BME280;30157;55.512;37.764;2024-03-23T03:20:20;98867.16;;;0.93;94.75
44198;BME280;30157;55.512;37.764;2024-03-23T03:22:47;98834.34;;;0.71;95.58
44198;BME280;30157;55.512;37.764;2024-03-23T03:25:13;98875.97;;;1.09;94.77
44198;BME280;30157;55.512;37.764;2024-03-23T03:27:39;98880.13;;;1.04;96.17
44198;BME280;30157;55.512;37.764;2024-03-23T03:30:05;98838.91;;;0.87;95.99
44198;BME280;30157;55.512;37.764;2024-03-23T03:32:32;98862.28;;;1.07;95.20
44198;BME280;30157;55.512;37.764;2024-03-23T03:34:58;98855.38;;;1.03;96.30
44198;BME280;30157;55.512;37.764;2024-03-23T03:37:24;98839.09;;;0.96;96.04
44198;BME280;30157;55.512;37.764;2024-03-23T03:39:50;98848.69;;;1.10;96.25
44198;BME280;30157;55.512;37.764;2024-03-23T03:42:15;98846.06;;;1.05;96.03
44198;BME280;30157;55.512;37.764;2024-03-23T03:44:41;98853.03;;;1.14;96.28
44198;BME280;30157;55.512;37.764;2024-03-23T03:47:07;98794.53;;;0.82;96.56
44198;BME280;30157;55.512;37.764;2024-03-23T03:49:33;98841.94;;;1.12;96.83
44198;BME280;30157;55.512;37.764;2024-03-23T03:51:58;98834.31;;;1.16;96.57
44198;BME280;30157;55.512;37.764;2024-03-23T03:54:26;98837.72;;;1.17;96.77
44198;BME280;30157;55.512;37.764;2024-03-23T03:56:52;98826.72;;;1.21;96.41
44198;BME280;30157;55.512;37.764;2024-03-23T03:59:18;98822.56;;;1.26;96.65
44198;BME280;30157;55.512;37.764;2024-03-23T04:01:44;98824.31;;;1.29;96.18
44198;BME280;30157;55.512;37.764;2024-03-23T04:04:10;98826.84;;;1.29;97.17
44198;BME280;30157;55.512;37.764;2024-03-23T04:06:37;98740.09;;;0.84;96.76
44198;BME280;30157;55.512;37.764;2024-03-23T04:09:02;98819.34;;;1.38;96.98
44198;BME280;30157;55.512;37.764;2024-03-23T04:11:28;98819.31;;;1.37;96.91
44198;BME280;30157;55.512;37.764;2024-03-23T04:13:54;98808.25;;;1.38;96.97
44198;BME280;30157;55.512;37.764;2024-03-23T04:16:33;98797.94;;;1.31;97.29
44198;BME280;30157;55.512;37.764;2024-03-23T04:19:00;98780.84;;;1.30;96.94
44198;BME280;30157;55.512;37.764;2024-03-23T04:21:25;98786.03;;;1.33;97.34
44198;BME280;30157;55.512;37.764;2024-03-23T04:23:51;98792.16;;;1.43;97.19
44198;BME280;30157;55.512;37.764;2024-03-23T04:26:17;98774.06;;;1.29;97.70
44198;BME280;30157;55.512;37.764;2024-03-23T04:28:43;98791.34;;;1.46;97.78
44198;BME280;30157;55.512;37.764;2024-03-23T04:31:09;98788.81;;;1.47;97.68
44198;BME280;30157;55.512;37.764;2024-03-23T04:33:35;98771.69;;;1.43;97.35
44198;BME280;30157;55.512;37.764;2024-03-23T04:36:01;98754.56;;;1.36;97.90
44198;BME280;30157;55.512;37.764;2024-03-23T04:38:26;98723.72;;;1.27;97.88
44198;BME280;30157;55.512;37.764;2024-03-23T04:40:56;98760.81;;;1.57;97.92
44198;BME280;30157;55.512;37.764;2024-03-23T04:43:22;98763.44;;;1.63;97.31
44198;BME280;30157;55.512;37.764;2024-03-23T04:45:48;98683.66;;;1.26;97.73
44198;BME280;30157;55.512;37.764;2024-03-23T04:48:14;98734.34;;;1.56;97.91
44198;BME280;30157;55.512;37.764;2024-03-23T04:50:39;98744.84;;;1.73;97.97
44198;BME280;30157;55.512;37.764;2024-03-23T04:53:07;98746.53;;;1.73;97.99
44198;BME280;30157;55.512;37.764;2024-03-23T04:55:33;98737.25;;;1.78;97.80
44198;BME280;30157;55.512;37.764;2024-03-23T04:57:58;98717.63;;;1.78;97.36
44198;BME280;30157;55.512;37.764;2024-03-23T05:00:25;98751.06;;;1.94;97.53
44198;BME280;30157;55.512;37.764;2024-03-23T05:02:51;98741.81;;;2.02;97.24
44198;BME280;30157;55.512;37.764;2024-03-23T05:05:18;98736.59;;;1.96;97.40
44198;BME280;30157;55.512;37.764;2024-03-23T05:07:44;98714.28;;;1.87;97.63
44198;BME280;30157;55.512;37.764;2024-03-23T05:10:10;98724.69;;;1.98;97.92
44198;BME280;30157;55.512;37.764;2024-03-23T05:12:39;98701.34;;;1.75;98.04
44198;BME280;30157;55.512;37.764;2024-03-23T05:15:06;98737.44;;;1.96;98.56
44198;BME280;30157;55.512;37.764;2024-03-23T05:17:34;98737.50;;;1.99;98.30
44198;BME280;30157;55.512;37.764;2024-03-23T05:20:00;98734.00;;;1.91;99.01
44198;BME280;30157;55.512;37.764;2024-03-23T05:22:26;98712.59;;;1.86;98.59
44198;BME280;30157;55.512;37.764;2024-03-23T05:24:53;98729.69;;;1.89;99.70
44198;BME280;30157;55.512;37.764;2024-03-23T05:27:19;98655.91;;;1.54;99.43
44198;BME280;30157;55.512;37.764;2024-03-23T05:29:45;98727.19;;;1.93;99.82
44198;BME280;30157;55.512;37.764;2024-03-23T05:32:11;98704.78;;;1.74;100.00
44198;BME280;30157;55.512;37.764;2024-03-23T05:34:36;98714.28;;;1.85;100.00
44198;BME280;30157;55.512;37.764;2024-03-23T05:37:02;98716.84;;;1.87;100.00
44198;BME280;30157;55.512;37.764;2024-03-23T05:39:28;98697.97;;;1.77;100.00
44198;BME280;30157;55.512;37.764;2024-03-23T05:41:54;98697.16;;;1.78;100.00
44198;BME280;30157;55.512;37.764;2024-03-23T05:44:19;98656.75;;;1.51;100.00
44198;BME280;30157;55.512;37.764;2024-03-23T05:46:45;98699.78;;;1.84;100.00
44198;BME280;30157;55.512;37.764;2024-03-23T05:49:15;98709.16;;;1.85;100.00
44198;BME280;30157;55.512;37.764;2024-03-23T05:51:42;98670.53;;;1.64;100.00
44198;BME280;30157;55.512;37.764;2024-03-23T05:54:08;98680.91;;;1.76;100.00
44198;BME280;30157;55.512;37.764;2024-03-23T05:56:34;98698.94;;;1.87;100.00
44198;BME280;30157;55.512;37.764;2024-03-23T05:59:00;98630.25;;;1.46;100.00
44198;BME280;30157;55.512;37.764;2024-03-23T06:01:26;98691.19;;;1.78;100.00
44198;BME280;30157;55.512;37.764;2024-03-23T06:03:54;98685.06;;;1.68;100.00
44198;BME280;30157;55.512;37.764;2024-03-23T06:06:20;98685.19;;;1.77;100.00
44198;BME280;30157;55.512;37.764;2024-03-23T06:08:46;98679.94;;;1.68;100.00
44198;BME280;30157;55.512;37.764;2024-03-23T06:11:11;98613.72;;;1.21;100.00
44198;BME280;30157;55.512;37.764;2024-03-23T06:13:37;98629.09;;;1.24;100.00
44198;BME280;30157;55.512;37.764;2024-03-23T06:16:03;98672.94;;;1.53;100.00
44198;BME280;30157;55.512;37.764;2024-03-23T06:18:29;98675.56;;;1.58;100.00
44198;BME280;30157;55.512;37.764;2024-03-23T06:20:55;98657.63;;;1.56;100.00
44198;BME280;30157;55.512;37.764;2024-03-23T06:23:21;98595.06;;;1.28;100.00
44198;BME280;30157;55.512;37.764;2024-03-23T06:25:46;98641.50;;;1.60;100.00
44198;BME280;30157;55.512;37.764;2024-03-23T06:28:12;98652.56;;;1.59;100.00
44198;BME280;30157;55.512;37.764;2024-03-23T06:30:39;98657.78;;;1.67;100.00
44198;BME280;30157;55.512;37.764;2024-03-23T06:33:04;98657.81;;;1.70;100.00
44198;BME280;30157;55.512;37.764;2024-03-23T06:35:33;98650.16;;;1.70;100.00
44198;BME280;30157;55.512;37.764;2024-03-23T06:37:59;98650.19;;;1.73;100.00
44198;BME280;30157;55.512;37.764;2024-03-23T06:40:24;98655.31;;;1.75;100.00
44198;BME280;30157;55.512;37.764;2024-03-23T06:42:50;98643.47;;;1.83;100.00
44198;BME280;30157;55.512;37.764;2024-03-23T06:45:16;98650.31;;;1.84;100.00
44198;BME280;30157;55.512;37.764;2024-03-23T06:47:42;98641.72;;;1.79;100.00
44198;BME280;30157;55.512;37.764;2024-03-23T06:50:08;98630.66;;;1.81;100.00
44198;BME280;30157;55.512;37.764;2024-03-23T06:52:36;98571.34;;;1.41;100.00
44198;BME280;30157;55.512;37.764;2024-03-23T06:55:03;98643.56;;;1.91;100.00
44198;BME280;30157;55.512;37.764;2024-03-23T06:57:30;98635.06;;;1.95;100.00
44198;BME280;30157;55.512;37.764;2024-03-23T06:59:56;98612.81;;;1.86;100.00
44198;BME280;30157;55.512;37.764;2024-03-23T07:02:22;98619.69;;;1.93;100.00
44198;BME280;30157;55.512;37.764;2024-03-23T07:04:48;98622.31;;;1.98;100.00
44198;BME280;30157;55.512;37.764;2024-03-23T07:07:14;98606.09;;;1.96;100.00
44198;BME280;30157;55.512;37.764;2024-03-23T07:09:39;98612.94;;;1.98;100.00
44198;BME280;30157;55.512;37.764;2024-03-23T07:12:05;98552.88;;;1.64;100.00
44198;BME280;30157;55.512;37.764;2024-03-23T07:14:31;98554.59;;;1.68;100.00
44198;BME280;30157;55.512;37.764;2024-03-23T07:16:57;98539.25;;;1.66;100.00
44198;BME280;30157;55.512;37.764;2024-03-23T07:19:23;98601.97;;;2.09;100.00
44198;BME280;30157;55.512;37.764;2024-03-23T07:21:50;98606.28;;;2.17;100.00
44198;BME280;30157;55.512;37.764;2024-03-23T07:24:16;98590.13;;;2.22;100.00
44198;BME280;30157;55.512;37.764;2024-03-23T07:26:42;98575.56;;;2.17;100.00
44198;BME280;30157;55.512;37.764;2024-03-23T07:29:07;98596.97;;;2.24;100.00
44198;BME280;30157;55.512;37.764;2024-03-23T07:31:33;98567.81;;;2.10;100.00
44198;BME280;30157;55.512;37.764;2024-03-23T07:33:59;98587.47;;;2.14;100.00
44198;BME280;30157;55.512;37.764;2024-03-23T07:36:25;98458.91;;;1.43;100.00
44198;BME280;30157;55.512;37.764;2024-03-23T07:38:51;98578.94;;;2.13;100.00
44198;BME280;30157;55.512;37.764;2024-03-23T07:41:18;98585.84;;;2.21;100.00
44198;BME280;30157;55.512;37.764;2024-03-23T07:43:45;98590.13;;;2.25;100.00
44198;BME280;30157;55.512;37.764;2024-03-23T07:46:12;98583.31;;;2.24;100.00
44198;BME280;30157;55.512;37.764;2024-03-23T07:48:39;98575.59;;;2.19;100.00
44198;BME280;30157;55.512;37.764;2024-03-23T07:51:10;98548.97;;;2.01;100.00
44198;BME280;30157;55.512;37.764;2024-03-23T07:53:37;98583.25;;;2.17;100.00
44198;BME280;30157;55.512;37.764;2024-03-23T07:56:05;98573.84;;;2.15;100.00
44198;BME280;30157;55.512;37.764;2024-03-23T07:58:32;98578.13;;;2.16;100.00
44198;BME280;30157;55.512;37.764;2024-03-23T08:01:09;98567.06;;;2.18;100.00
44198;BME280;30157;55.512;37.764;2024-03-23T08:03:36;98578.16;;;2.22;100.00
44198;BME280;30157;55.512;37.764;2024-03-23T08:06:16;98554.09;;;2.00;100.00
44198;BME280;30157;55.512;37.764;2024-03-23T08:08:44;98518.13;;;1.84;100.00
44198;BME280;30157;55.512;37.764;2024-03-23T08:11:10;98395.41;;;1.03;100.00
44198;BME280;30157;55.512;37.764;2024-03-23T08:13:38;98561.84;;;2.08;100.00
44198;BME280;30157;55.512;37.764;2024-03-23T08:16:04;98565.34;;;2.19;100.00
44198;BME280;30157;55.512;37.764;2024-03-23T08:18:30;98543.03;;;2.06;100.00
44198;BME280;30157;55.512;37.764;2024-03-23T08:21:03;98564.50;;;2.20;100.00
44198;BME280;30157;55.512;37.764;2024-03-23T08:23:31;98568.00;;;2.30;100.00
44198;BME280;30157;55.512;37.764;2024-03-23T08:26:05;98389.69;;;1.24;100.00
44198;BME280;30157;55.512;37.764;2024-03-23T08:28:31;98555.19;;;2.27;100.00
44198;BME280;30157;55.512;37.764;2024-03-23T08:31:03;98553.44;;;2.23;100.00
44198;BME280;30157;55.512;37.764;2024-03-23T08:33:31;98556.06;;;2.30;100.00
44198;BME280;30157;55.512;37.764;2024-03-23T08:35:58;98541.47;;;2.23;100.00
44198;BME280;30157;55.512;37.764;2024-03-23T08:38:25;98526.94;;;2.17;100.00
44198;BME280;30157;55.512;37.764;2024-03-23T08:41:05;98548.41;;;2.33;100.00
44198;BME280;30157;55.512;37.764;2024-03-23T08:43:32;98524.47;;;2.28;100.00
44198;BME280;30157;55.512;37.764;2024-03-23T08:46:08;98521.91;;;2.28;100.00
44198;BME280;30157;55.512;37.764;2024-03-23T08:48:36;98535.66;;;2.41;100.00
44198;BME280;30157;55.512;37.764;2024-03-23T08:51:02;98529.72;;;2.47;100.00
44198;BME280;30157;55.512;37.764;2024-03-23T08:53:29;98510.84;;;2.35;100.00
44198;BME280;30157;55.512;37.764;2024-03-23T08:55:56;98509.09;;;2.30;100.00
44198;BME280;30157;55.512;37.764;2024-03-23T08:58:25;98539.91;;;2.39;100.00
44198;BME280;30157;55.512;37.764;2024-03-23T09:00:52;98530.56;;;2.43;100.00
44198;BME280;30157;55.512;37.764;2024-03-23T09:03:20;98510.84;;;2.32;100.00
44198;BME280;30157;55.512;37.764;2024-03-23T09:05:46;98462.78;;;2.00;100.00
44198;BME280;30157;55.512;37.764;2024-03-23T09:08:12;98527.19;;;2.53;100.00
44198;BME280;30157;55.512;37.764;2024-03-23T09:10:39;98510.09;;;2.47;100.00
44198;BME280;30157;55.512;37.764;2024-03-23T09:13:06;98503.22;;;2.43;100.00
44198;BME280;30157;55.512;37.764;2024-03-23T09:15:36;98454.44;;;2.22;100.00
44198;BME280;30157;55.512;37.764;2024-03-23T09:18:03;98450.97;;;2.18;100.00
44198;BME280;30157;55.512;37.764;2024-03-23T09:20:29;98517.06;;;2.72;100.00
44198;BME280;30157;55.512;37.764;2024-03-23T09:22:54;98493.94;;;2.56;100.00
44198;BME280;30157;55.512;37.764;2024-03-23T09:25:20;98517.91;;;2.67;100.00
44198;BME280;30157;55.512;37.764;2024-03-23T09:27:50;98451.16;;;2.41;100.00
44198;BME280;30157;55.512;37.764;2024-03-23T09:30:16;98502.59;;;2.80;100.00
44198;BME280;30157;55.512;37.764;2024-03-23T09:32:43;98464.09;;;2.67;100.00
44198;BME280;30157;55.512;37.764;2024-03-23T09:35:10;98497.56;;;2.97;100.00
44198;BME280;30157;55.512;37.764;2024-03-23T09:37:36;98483.03;;;2.93;100.00
44198;BME280;30157;55.512;37.764;2024-03-23T09:40:02;98489.88;;;3.01;100.00
44198;BME280;30157;55.512;37.764;2024-03-23T09:42:29;98495.00;;;2.97;100.00
44198;BME280;30157;55.512;37.764;2024-03-23T09:44:57;98456.44;;;2.72;100.00
44198;BME280;30157;55.512;37.764;2024-03-23T09:47:24;98454.75;;;2.76;100.00
44198;BME280;30157;55.512;37.764;2024-03-23T09:49:51;98487.25;;;2.91;100.00
44198;BME280;30157;55.512;37.764;2024-03-23T09:52:17;98488.19;;;3.02;100.00
44198;BME280;30157;55.512;37.764;2024-03-23T09:54:43;98464.22;;;2.94;100.00
44198;BME280;30157;55.512;37.764;2024-03-23T09:57:08;98485.63;;;3.03;100.00
44198;BME280;30157;55.512;37.764;2024-03-23T09:59:34;98487.34;;;3.05;100.00
44198;BME280;30157;55.512;37.764;2024-03-23T10:02:03;98490.78;;;3.11;100.00
44198;BME280;30157;55.512;37.764;2024-03-23T10:07:17;98489.94;;;3.15;100.00
44198;BME280;30157;55.512;37.764;2024-03-23T10:09:44;98450.53;;;2.95;100.00
44198;BME280;30157;55.512;37.764;2024-03-23T10:12:14;98460.84;;;3.02;100.00
44198;BME280;30157;55.512;37.764;2024-03-23T10:14:41;98405.22;;;2.80;100.00
44198;BME280;30157;55.512;37.764;2024-03-23T10:17:18;98422.34;;;2.90;100.00
44198;BME280;30157;55.512;37.764;2024-03-23T10:19:48;98469.47;;;3.31;100.00
44198;BME280;30157;55.512;37.764;2024-03-23T10:22:20;98417.25;;;2.98;100.00
44198;BME280;30157;55.512;37.764;2024-03-23T10:24:47;98472.03;;;3.32;100.00
44198;BME280;30157;55.512;37.764;2024-03-23T10:27:20;98435.25;;;3.23;100.00
44198;BME280;30157;55.512;37.764;2024-03-23T10:29:49;98374.50;;;2.86;100.00
44198;BME280;30157;55.512;37.764;2024-03-23T10:32:17;98408.75;;;3.13;100.00
44198;BME280;30157;55.512;37.764;2024-03-23T10:34:44;98460.13;;;3.42;100.00
44198;BME280;30157;55.512;37.764;2024-03-23T10:37:10;98456.72;;;3.45;100.00
44198;BME280;30157;55.512;37.764;2024-03-23T10:39:39;98447.28;;;3.50;100.00
44198;BME280;30157;55.512;37.764;2024-03-23T10:42:09;98443.03;;;3.47;100.00
44198;BME280;30157;55.512;37.764;2024-03-23T10:44:38;98435.31;;;3.46;100.00
44198;BME280;30157;55.512;37.764;2024-03-23T10:47:05;98413.09;;;3.34;100.00
44198;BME280;30157;55.512;37.764;2024-03-23T10:49:34;98372.00;;;3.09;100.00
44198;BME280;30157;55.512;37.764;2024-03-23T10:52:02;98436.19;;;3.60;100.00
44198;BME280;30157;55.512;37.764;2024-03-23T10:54:29;98413.97;;;3.51;100.00
44198;BME280;30157;55.512;37.764;2024-03-23T10:57:17;98442.19;;;3.67;100.00
44198;BME280;30157;55.512;37.764;2024-03-23T10:59:46;98441.34;;;3.65;100.00
44198;BME280;30157;55.512;37.764;2024-03-23T11:02:21;98440.47;;;3.63;100.00
44198;BME280;30157;55.512;37.764;2024-03-23T11:04:47;98437.06;;;3.65;100.00
44198;BME280;30157;55.512;37.764;2024-03-23T11:07:31;98426.81;;;3.73;100.00
44198;BME280;30157;55.512;37.764;2024-03-23T11:09:58;98358.34;;;3.24;100.00
44198;BME280;30157;55.512;37.764;2024-03-23T11:12:25;98430.19;;;3.66;100.00
44198;BME280;30157;55.512;37.764;2024-03-23T11:15:06;98432.78;;;3.70;100.00
44198;BME280;30157;55.512;37.764;2024-03-23T11:17:36;98407.97;;;3.62;100.00
44198;BME280;30157;55.512;37.764;2024-03-23T11:20:03;98419.97;;;3.72;100.00
44198;BME280;30157;55.512;37.764;2024-03-23T11:25:19;98413.97;;;3.72;100.00
44198;BME280;30157;55.512;37.764;2024-03-23T11:27:53;98417.38;;;3.78;100.00
44198;BME280;30157;55.512;37.764;2024-03-23T11:30:19;98419.09;;;3.79;100.00
44198;BME280;30157;55.512;37.764;2024-03-23T11:32:46;98378.03;;;3.50;100.00
44198;BME280;30157;55.512;37.764;2024-03-23T11:40:27;98413.13;;;3.86;100.00
44198;BME280;30157;55.512;37.764;2024-03-23T11:42:57;98385.75;;;3.65;100.00
44198;BME280;30157;55.512;37.764;2024-03-23T11:45:23;98397.72;;;3.68;100.00
44198;BME280;30157;55.512;37.764;2024-03-23T11:48:04;98354.94;;;3.44;100.00
44198;BME280;30157;55.512;37.764;2024-03-23T11:50:30;98406.25;;;3.70;100.00
44198;BME280;30157;55.512;37.764;2024-03-23T11:55:51;98405.41;;;3.77;100.00
44198;BME280;30157;55.512;37.764;2024-03-23T11:58:19;98393.44;;;3.65;100.00
44198;BME280;30157;55.512;37.764;2024-03-23T12:00:58;98390.00;;;3.71;100.00
44198;BME280;30157;55.512;37.764;2024-03-23T12:03:25;98336.13;;;3.35;100.00
44198;BME280;30157;55.512;37.764;2024-03-23T12:05:52;98404.56;;;3.70;100.00
44198;BME280;30157;55.512;37.764;2024-03-23T12:08:23;98404.56;;;3.64;100.00
44198;BME280;30157;55.512;37.764;2024-03-23T12:11:04;98314.75;;;3.16;100.00
44198;BME280;30157;55.512;37.764;2024-03-23T12:13:31;98385.72;;;3.58;100.00
44198;BME280;30157;55.512;37.764;2024-03-23T12:16:09;98393.44;;;3.65;100.00
44198;BME280;30157;55.512;37.764;2024-03-23T12:18:39;98402.81;;;3.63;100.00
44198;BME280;30157;55.512;37.764;2024-03-23T12:21:05;98375.47;;;3.47;100.00
44198;BME280;30157;55.512;37.764;2024-03-23T12:23:31;98396.84;;;3.61;100.00
44198;BME280;30157;55.512;37.764;2024-03-23T12:25:58;98339.53;;;3.24;100.00
44198;BME280;30157;55.512;37.764;2024-03-23T12:28:24;98326.69;;;3.19;100.00
44198;BME280;30157;55.512;37.764;2024-03-23T12:30:51;98390.00;;;3.62;100.00
44198;BME280;30157;55.512;37.764;2024-03-23T12:33:18;98395.13;;;3.60;100.00
44198;BME280;30157;55.512;37.764;2024-03-23T12:35:44;98399.44;;;3.61;100.00
44198;BME280;30157;55.512;37.764;2024-03-23T12:38:09;98342.97;;;3.35;100.00
44198;BME280;30157;55.512;37.764;2024-03-23T12:40:35;98396.00;;;3.64;100.00
44198;BME280;30157;55.512;37.764;2024-03-23T12:43:01;98372.91;;;3.53;100.00
44198;BME280;30157;55.512;37.764;2024-03-23T12:45:27;98396.84;;;3.66;100.00
44198;BME280;30157;55.512;37.764;2024-03-23T12:47:53;98377.19;;;3.49;100.00
44198;BME280;30157;55.512;37.764;2024-03-23T12:50:20;98396.84;;;3.61;100.00
44198;BME280;30157;55.512;37.764;2024-03-23T12:52:46;98404.56;;;3.63;100.00
44198;BME280;30157;55.512;37.764;2024-03-23T12:55:12;98382.31;;;3.51;100.00
44198;BME280;30157;55.512;37.764;2024-03-23T12:57:38;98364.34;;;3.46;100.00
44198;BME280;30157;55.512;37.764;2024-03-23T13:00:04;98326.72;;;3.22;100.00
44198;BME280;30157;55.512;37.764;2024-03-23T13:02:30;98384.84;;;3.54;100.00
44198;BME280;30157;55.512;37.764;2024-03-23T13:04:56;98388.31;;;3.53;100.00
44198;BME280;30157;55.512;37.764;2024-03-23T13:07:22;98374.59;;;3.42;100.00
44198;BME280;30157;55.512;37.764;2024-03-23T13:09:52;98395.13;;;3.42;100.00
44198;BME280;30157;55.512;37.764;2024-03-23T13:12:21;98372.91;;;3.30;100.00
44198;BME280;30157;55.512;37.764;2024-03-23T13:14:47;98394.25;;;3.36;100.00
44198;BME280;30157;55.512;37.764;2024-03-23T13:17:13;98384.84;;;3.32;100.00
44198;BME280;30157;55.512;37.764;2024-03-23T13:19:39;98353.19;;;3.10;100.00
44198;BME280;30157;55.512;37.764;2024-03-23T13:22:05;98341.22;;;2.98;100.00
44198;BME280;30157;55.512;37.764;2024-03-23T13:24:31;98390.81;;;3.25;100.00
44198;BME280;30157;55.512;37.764;2024-03-23T13:26:57;98336.06;;;2.84;100.00
44198;BME280;30157;55.512;37.764;2024-03-23T13:29:23;98363.44;;;3.13;100.00
44198;BME280;30157;55.512;37.764;2024-03-23T13:31:51;98333.53;;;2.94;100.00
44198;BME280;30157;55.512;37.764;2024-03-23T13:34:17;98366.00;;;3.13;100.00
44198;BME280;30157;55.512;37.764;2024-03-23T13:36:44;98379.69;;;3.20;100.00
44198;BME280;30157;55.512;37.764;2024-03-23T13:39:10;98377.97;;;3.19;100.00
44198;BME280;30157;55.512;37.764;2024-03-23T13:41:40;98350.63;;;3.13;100.00
44198;BME280;30157;55.512;37.764;2024-03-23T13:44:07;98368.59;;;3.21;100.00
44198;BME280;30157;55.512;37.764;2024-03-23T13:46:34;98254.84;;;2.49;100.00
44198;BME280;30157;55.512;37.764;2024-03-23T13:49:00;98383.13;;;3.22;100.00
44198;BME280;30157;55.512;37.764;2024-03-23T13:51:26;98368.59;;;3.26;100.00
44198;BME280;30157;55.512;37.764;2024-03-23T13:53:56;98369.47;;;3.25;100.00
44198;BME280;30157;55.512;37.764;2024-03-23T13:56:23;98352.31;;;3.08;100.00
44198;BME280;30157;55.512;37.764;2024-03-23T13:58:49;98366.88;;;3.17;100.00